createdAt,value
2017-03-04T00:00:53.925Z,24.17
2017-03-04T00:02:02.825Z,24.11
2017-03-04T00:03:11.749Z,24.06
2017-03-04T00:04:20.653Z,24.09
2017-03-04T00:05:29.967Z,24.05
2017-03-04T00:06:38.879Z,24.08
2017-03-04T00:07:47.797Z,24.09
2017-03-04T00:08:56.696Z,24.06
2017-03-04T00:10:05.583Z,24.11
2017-03-04T00:11:14.489Z,24.06
2017-03-04T00:12:23.788Z,24.02
2017-03-04T00:13:32.674Z,23.99
2017-03-04T00:14:41.587Z,24.01
2017-03-04T00:15:50.473Z,24.02
2017-03-04T00:16:59.390Z,24.01
2017-03-04T00:18:08.320Z,23.96
2017-03-04T00:19:17.231Z,24.03
2017-03-04T00:20:26.112Z,23.96
2017-03-04T00:21:35.010Z,24.13
2017-03-04T00:22:43.920Z,23.96
2017-03-04T00:23:52.824Z,23.98
2017-03-04T00:25:01.718Z,24.01
2017-03-04T00:26:11.016Z,23.99
2017-03-04T00:27:19.931Z,24.01
2017-03-04T00:28:28.835Z,23.93
2017-03-04T00:29:37.736Z,23.72
2017-03-04T00:30:46.624Z,23.36
2017-03-04T00:31:55.911Z,23.15
2017-03-04T00:33:04.856Z,22.87
2017-03-04T00:34:13.739Z,22.68
2017-03-04T00:35:22.646Z,22.6
2017-03-04T00:36:31.538Z,22.43
2017-03-04T00:37:40.433Z,22.36
2017-03-04T00:38:49.340Z,22.13
2017-03-04T00:39:58.218Z,22.19
2017-03-04T00:41:07.136Z,21.96
2017-03-04T00:42:16.042Z,21.98
2017-03-04T00:43:24.949Z,21.9
2017-03-04T00:44:33.830Z,21.7
2017-03-04T00:45:42.772Z,21.7
2017-03-04T00:46:51.674Z,21.67
2017-03-04T00:48:00.564Z,21.6
2017-03-04T00:49:09.447Z,21.58
2017-03-04T00:50:18.347Z,21.4
2017-03-04T00:51:27.427Z,21.24
2017-03-04T00:52:36.322Z,21.38
2017-03-04T00:53:45.209Z,21.3
2017-03-04T00:54:54.132Z,21.15
2017-03-04T00:56:03.044Z,21.15
2017-03-04T00:57:11.928Z,20.95
2017-03-04T00:58:20.825Z,20.84
2017-03-04T00:59:29.717Z,20.76
2017-03-04T01:00:38.611Z,20.71
2017-03-04T01:01:47.529Z,20.63
2017-03-04T01:02:56.450Z,20.68
2017-03-04T01:04:05.754Z,20.58
2017-03-04T01:05:14.644Z,20.53
2017-03-04T01:06:23.540Z,20.46
2017-03-04T01:07:32.453Z,20.37
2017-03-04T01:08:41.378Z,20.37
2017-03-04T01:09:50.307Z,20.4
2017-03-04T01:10:59.241Z,20.31
2017-03-04T01:12:08.149Z,20.1
2017-03-04T01:13:17.071Z,19.92
2017-03-04T01:14:25.959Z,19.95
2017-03-04T01:15:34.873Z,19.97
2017-03-04T01:16:43.813Z,19.9
2017-03-04T01:17:52.750Z,19.88
2017-03-04T01:19:01.646Z,19.88
2017-03-04T01:20:10.545Z,19.9
2017-03-04T01:21:19.458Z,19.79
2017-03-04T01:22:28.389Z,19.76
2017-03-04T01:23:37.676Z,19.82
2017-03-04T01:24:46.563Z,19.62
2017-03-04T01:25:55.438Z,19.5
2017-03-04T01:27:04.317Z,19.42
2017-03-04T01:28:13.213Z,19.43
2017-03-04T01:29:22.530Z,19.4
2017-03-04T01:30:31.409Z,19.28
2017-03-04T01:31:40.285Z,19.35
2017-03-04T01:32:49.177Z,19.27
2017-03-04T01:33:58.087Z,19.28
2017-03-04T01:35:07.408Z,19.21
2017-03-04T01:36:16.305Z,19.17
2017-03-04T01:37:25.212Z,18.94
2017-03-04T01:38:34.123Z,18.95
2017-03-04T01:39:43.020Z,18.99
2017-03-04T01:40:51.917Z,18.89
2017-03-04T01:42:01.214Z,18.9
2017-03-04T01:43:10.125Z,18.87
2017-03-04T01:44:19.040Z,18.76
2017-03-04T01:45:28.344Z,18.81
2017-03-04T01:46:37.243Z,18.81
2017-03-04T01:47:46.140Z,18.76
2017-03-04T01:48:55.067Z,18.66
2017-03-04T01:50:04.350Z,18.51
2017-03-04T01:51:13.248Z,18.57
2017-03-04T01:52:22.163Z,18.39
2017-03-04T01:53:31.081Z,18.4
2017-03-04T01:54:39.971Z,18.34
2017-03-04T01:55:49.312Z,18.31
2017-03-04T01:56:58.207Z,18.35
2017-03-04T01:58:07.122Z,18.28
2017-03-04T01:59:16.003Z,18.17
2017-03-04T02:00:24.909Z,18.28
2017-03-04T02:01:33.797Z,18.17
2017-03-04T02:02:42.683Z,18.28
2017-03-04T02:03:51.589Z,18.1
2017-03-04T02:05:00.488Z,18.06
2017-03-04T02:06:09.376Z,17.99
2017-03-04T02:07:18.270Z,17.95
2017-03-04T02:08:27.184Z,17.92
2017-03-04T02:09:36.119Z,17.88
2017-03-04T02:10:45.013Z,17.94
2017-03-04T02:11:53.883Z,17.91
2017-03-04T02:13:02.784Z,17.84
2017-03-04T02:14:12.106Z,17.98
2017-03-04T02:15:21.003Z,17.85
2017-03-04T02:16:29.915Z,17.8
2017-03-04T02:17:38.817Z,17.79
2017-03-04T02:18:47.734Z,17.86
2017-03-04T02:19:56.649Z,17.82
2017-03-04T02:21:05.545Z,17.84
2017-03-04T02:22:14.445Z,17.77
2017-03-04T02:23:23.766Z,17.76
2017-03-04T02:24:32.678Z,17.73
2017-03-04T02:25:41.616Z,17.8
2017-03-04T02:26:50.930Z,17.76
2017-03-04T02:27:59.814Z,17.73
2017-03-04T02:29:08.726Z,17.74
2017-03-04T02:30:18.017Z,17.66
2017-03-04T02:31:26.911Z,17.45
2017-03-04T02:32:35.845Z,17.48
2017-03-04T02:33:45.158Z,17.54
2017-03-04T02:34:54.058Z,17.44
2017-03-04T02:36:02.960Z,17.48
2017-03-04T02:37:11.859Z,17.51
2017-03-04T02:38:20.755Z,17.53
2017-03-04T02:39:29.676Z,17.47
2017-03-04T02:40:38.576Z,17.38
2017-03-04T02:41:47.482Z,17.3
2017-03-04T02:42:56.399Z,17.23
2017-03-04T02:44:05.300Z,17.32
2017-03-04T02:45:14.226Z,17.24
2017-03-04T02:46:23.128Z,17.21
2017-03-04T02:47:32.428Z,17.26
2017-03-04T02:48:41.343Z,17.29
2017-03-04T02:49:50.255Z,17.2
2017-03-04T02:50:59.129Z,17.28
2017-03-04T02:52:08.018Z,17.23
2017-03-04T02:53:16.952Z,17.24
2017-03-04T02:54:26.270Z,17.28
2017-03-04T02:55:35.194Z,17.13
2017-03-04T02:56:44.106Z,17.18
2017-03-04T02:57:53.000Z,16.99
2017-03-04T02:59:01.871Z,17.1
2017-03-04T03:00:10.752Z,17
2017-03-04T03:01:20.092Z,17.02
2017-03-04T03:02:28.976Z,16.98
2017-03-04T03:03:37.917Z,17.13
2017-03-04T03:04:46.834Z,17.05
2017-03-04T03:05:56.131Z,16.96
2017-03-04T03:07:05.067Z,17.03
2017-03-04T03:08:14.009Z,17
2017-03-04T03:09:22.924Z,16.99
2017-03-04T03:10:31.874Z,16.92
2017-03-04T03:11:41.161Z,17
2017-03-04T03:12:50.051Z,16.98
2017-03-04T03:13:58.967Z,17.02
2017-03-04T03:15:08.271Z,16.98
2017-03-04T03:16:17.150Z,16.98
2017-03-04T03:17:26.037Z,16.92
2017-03-04T03:18:34.952Z,16.95
2017-03-04T03:19:43.855Z,16.93
2017-03-04T03:20:53.151Z,16.82
2017-03-04T03:22:02.050Z,16.82
2017-03-04T03:23:10.937Z,16.8
2017-03-04T03:24:19.860Z,16.71
2017-03-04T03:25:28.765Z,16.8
2017-03-04T03:26:37.692Z,16.74
2017-03-04T03:27:46.570Z,16.71
2017-03-04T03:28:55.462Z,16.71
2017-03-04T03:30:04.749Z,16.81
2017-03-04T03:31:13.638Z,16.85
2017-03-04T03:32:22.934Z,16.78
2017-03-04T03:33:31.818Z,16.78
2017-03-04T03:34:40.735Z,16.77
2017-03-04T03:35:49.637Z,16.85
2017-03-04T03:36:58.541Z,16.82
2017-03-04T03:38:07.465Z,16.85
2017-03-04T03:39:16.434Z,16.87
2017-03-04T03:40:25.335Z,16.98
2017-03-04T03:41:34.623Z,16.96
2017-03-04T03:42:43.533Z,16.92
2017-03-04T03:43:52.428Z,16.85
2017-03-04T03:45:01.328Z,16.71
2017-03-04T03:46:10.226Z,16.73
2017-03-04T03:47:19.125Z,16.65
2017-03-04T03:48:28.030Z,16.65
2017-03-04T03:49:36.927Z,16.48
2017-03-04T03:50:45.823Z,16.42
2017-03-04T03:51:54.733Z,16.42
2017-03-04T03:53:03.631Z,16.41
2017-03-04T03:54:12.538Z,16.41
2017-03-04T03:55:21.444Z,16.44
2017-03-04T03:56:30.355Z,16.41
2017-03-04T03:57:39.263Z,16.47
2017-03-04T03:58:48.147Z,16.42
2017-03-04T03:59:57.023Z,16.35
2017-03-04T04:01:05.915Z,16.38
2017-03-04T04:02:14.795Z,16.35
2017-03-04T04:03:23.685Z,16.37
2017-03-04T04:04:32.628Z,16.32
2017-03-04T04:05:41.527Z,16.4
2017-03-04T04:06:50.406Z,16.27
2017-03-04T04:07:59.287Z,16.29
2017-03-04T04:09:08.605Z,16.35
2017-03-04T04:10:17.904Z,16.44
2017-03-04T04:11:26.820Z,16.4
2017-03-04T04:12:35.704Z,16.37
2017-03-04T04:13:44.607Z,16.38
2017-03-04T04:14:53.499Z,16.42
2017-03-04T04:16:02.399Z,16.44
2017-03-04T04:17:11.271Z,16.47
2017-03-04T04:18:20.178Z,16.48
2017-03-04T04:19:29.085Z,16.44
2017-03-04T04:20:37.974Z,16.47
2017-03-04T04:21:46.880Z,16.65
2017-03-04T04:22:55.794Z,16.42
2017-03-04T04:24:04.669Z,16.47
2017-03-04T04:25:13.574Z,16.44
2017-03-04T04:26:22.481Z,16.44
2017-03-04T04:27:31.364Z,16.4
2017-03-04T04:28:40.236Z,16.3
2017-03-04T04:29:49.124Z,16.34
2017-03-04T04:30:58.016Z,16.32
2017-03-04T04:32:06.897Z,16.25
2017-03-04T04:33:15.796Z,16.17
2017-03-04T04:34:24.694Z,16.11
2017-03-04T04:35:33.569Z,16.23
2017-03-04T04:36:42.486Z,16.15
2017-03-04T04:37:51.380Z,16.17
2017-03-04T04:39:00.282Z,16.25
2017-03-04T04:40:09.589Z,16.27
2017-03-04T04:41:18.479Z,16.17
2017-03-04T04:42:27.353Z,16.1
2017-03-04T04:43:36.268Z,16
2017-03-04T04:44:45.178Z,16
2017-03-04T04:45:54.066Z,16
2017-03-04T04:47:02.966Z,15.91
2017-03-04T04:48:11.868Z,15.99
2017-03-04T04:49:20.757Z,16.04
2017-03-04T04:50:29.677Z,16.03
2017-03-04T04:51:38.603Z,15.99
2017-03-04T04:52:47.528Z,16.01
2017-03-04T04:53:56.429Z,15.89
2017-03-04T04:55:05.735Z,15.91
2017-03-04T04:56:14.658Z,15.89
2017-03-04T04:57:23.556Z,15.85
2017-03-04T04:58:32.443Z,15.79
2017-03-04T04:59:41.339Z,15.78
2017-03-04T05:00:50.216Z,15.97
2017-03-04T05:01:59.507Z,15.97
2017-03-04T05:03:08.390Z,16.09
2017-03-04T05:04:17.323Z,15.99
2017-03-04T05:05:26.224Z,16.1
2017-03-04T05:06:35.120Z,16.01
2017-03-04T05:07:44.000Z,16
2017-03-04T05:08:52.918Z,15.96
2017-03-04T05:10:02.235Z,15.92
2017-03-04T05:11:11.517Z,15.96
2017-03-04T05:12:20.424Z,15.88
2017-03-04T05:13:29.318Z,15.88
2017-03-04T05:14:38.234Z,15.92
2017-03-04T05:15:47.154Z,16.01
2017-03-04T05:16:56.032Z,16
2017-03-04T05:18:04.950Z,15.97
2017-03-04T05:19:13.840Z,16.09
2017-03-04T05:20:22.746Z,15.91
2017-03-04T05:21:31.626Z,16.03
2017-03-04T05:22:40.521Z,15.94
2017-03-04T05:23:49.798Z,15.91
2017-03-04T05:24:58.695Z,15.79
2017-03-04T05:26:07.582Z,15.76
2017-03-04T05:27:16.473Z,15.94
2017-03-04T05:28:25.344Z,15.96
2017-03-04T05:29:34.645Z,15.94
2017-03-04T05:30:43.533Z,15.85
2017-03-04T05:31:52.461Z,15.91
2017-03-04T05:33:01.376Z,15.91
2017-03-04T05:34:10.285Z,15.92
2017-03-04T05:35:19.198Z,15.79
2017-03-04T05:36:28.471Z,15.74
2017-03-04T05:37:37.364Z,15.86
2017-03-04T05:38:46.268Z,15.73
2017-03-04T05:39:55.147Z,15.78
2017-03-04T05:41:04.079Z,15.61
2017-03-04T05:42:12.982Z,15.67
2017-03-04T05:43:21.873Z,15.74
2017-03-04T05:44:30.779Z,15.78
2017-03-04T05:45:39.679Z,15.67
2017-03-04T05:46:48.569Z,15.63
2017-03-04T05:47:57.450Z,15.69
2017-03-04T05:49:06.350Z,15.71
2017-03-04T05:50:15.253Z,15.76
2017-03-04T05:51:24.175Z,15.64
2017-03-04T05:52:33.066Z,15.69
2017-03-04T05:53:42.394Z,15.63
2017-03-04T05:54:51.294Z,15.49
2017-03-04T05:56:00.573Z,15.69
2017-03-04T05:57:09.506Z,15.63
2017-03-04T05:58:18.431Z,15.73
2017-03-04T05:59:27.338Z,15.61
2017-03-04T06:00:36.252Z,15.73
2017-03-04T06:01:45.141Z,15.52
2017-03-04T06:02:54.051Z,15.41
2017-03-04T06:04:02.975Z,15.45
2017-03-04T06:05:11.875Z,15.34
2017-03-04T06:06:20.752Z,15.41
2017-03-04T06:07:29.659Z,15.63
2017-03-04T06:08:38.564Z,15.76
2017-03-04T06:09:47.449Z,15.73
2017-03-04T06:10:56.335Z,15.48
2017-03-04T06:12:05.639Z,15.48
2017-03-04T06:13:14.546Z,15.48
2017-03-04T06:14:23.445Z,15.49
2017-03-04T06:15:32.351Z,15.49
2017-03-04T06:16:41.257Z,15.45
2017-03-04T06:17:50.180Z,15.46
2017-03-04T06:18:59.062Z,15.38
2017-03-04T06:20:07.946Z,15.51
2017-03-04T06:21:16.822Z,15.46
2017-03-04T06:22:25.705Z,15.51
2017-03-04T06:23:34.603Z,15.44
2017-03-04T06:24:43.660Z,15.6
2017-03-04T06:25:52.565Z,15.69
2017-03-04T06:27:01.473Z,15.64
2017-03-04T06:28:10.348Z,15.61
2017-03-04T06:29:19.250Z,15.64
2017-03-04T06:30:28.132Z,15.59
2017-03-04T06:31:37.025Z,15.7
2017-03-04T06:32:46.196Z,15.7
2017-03-04T06:33:56.568Z,15.71
2017-03-04T06:35:05.626Z,15.61
2017-03-04T06:36:14.680Z,15.76
2017-03-04T06:37:24.121Z,15.67
2017-03-04T06:38:33.029Z,15.69
2017-03-04T06:39:41.920Z,15.61
2017-03-04T06:40:50.869Z,15.56
2017-03-04T06:42:00.160Z,15.51
2017-03-04T06:43:09.070Z,15.67
2017-03-04T06:44:18.360Z,15.64
2017-03-04T06:45:27.243Z,15.82
2017-03-04T06:46:36.236Z,15.71
2017-03-04T06:47:45.147Z,15.67
2017-03-04T06:48:54.132Z,15.69
2017-03-04T06:50:03.886Z,15.67
2017-03-04T06:51:13.582Z,15.71
2017-03-04T06:52:22.488Z,15.7
2017-03-04T06:53:31.438Z,15.76
2017-03-04T06:54:40.652Z,15.74
2017-03-04T06:55:50.411Z,15.74
2017-03-04T06:56:59.753Z,15.73
2017-03-04T06:58:08.713Z,15.66
2017-03-04T06:59:18.083Z,15.61
2017-03-04T07:00:27.061Z,15.52
2017-03-04T07:01:36.782Z,15.46
2017-03-04T07:02:45.920Z,15.56
2017-03-04T07:03:55.242Z,15.64
2017-03-04T07:05:04.130Z,15.66
2017-03-04T07:06:13.170Z,15.74
2017-03-04T07:07:22.051Z,15.6
2017-03-04T07:08:30.942Z,15.63
2017-03-04T07:09:39.975Z,15.6
2017-03-04T07:10:48.916Z,15.66
2017-03-04T07:11:58.131Z,15.6
2017-03-04T07:13:07.005Z,15.64
2017-03-04T07:14:15.909Z,15.66
2017-03-04T07:15:24.809Z,15.6
2017-03-04T07:16:33.721Z,15.63
2017-03-04T07:17:42.594Z,15.64
2017-03-04T07:18:51.492Z,15.56
2017-03-04T07:20:00.397Z,15.69
2017-03-04T07:21:09.343Z,15.73
2017-03-04T07:22:18.690Z,15.56
2017-03-04T07:23:28.193Z,15.6
2017-03-04T07:24:37.478Z,15.42
2017-03-04T07:25:46.356Z,15.51
2017-03-04T07:26:55.649Z,15.45
2017-03-04T07:28:04.922Z,15.49
2017-03-04T07:29:13.835Z,15.49
2017-03-04T07:30:22.718Z,15.45
2017-03-04T07:31:31.631Z,15.42
2017-03-04T07:32:40.539Z,15.55
2017-03-04T07:33:49.440Z,15.63
2017-03-04T07:34:58.336Z,15.73
2017-03-04T07:36:07.231Z,15.66
2017-03-04T07:37:16.118Z,15.59
2017-03-04T07:38:25.018Z,15.71
2017-03-04T07:39:33.904Z,15.61
2017-03-04T07:40:42.801Z,15.53
2017-03-04T07:41:51.734Z,15.64
2017-03-04T07:43:00.637Z,15.76
2017-03-04T07:44:09.529Z,15.69
2017-03-04T07:45:18.418Z,15.67
2017-03-04T07:46:27.292Z,15.73
2017-03-04T07:47:36.193Z,15.67
2017-03-04T07:48:45.104Z,15.66
2017-03-04T07:49:53.996Z,15.67
2017-03-04T07:51:02.884Z,15.69
2017-03-04T07:52:11.786Z,15.81
2017-03-04T07:53:20.669Z,15.69
2017-03-04T07:54:29.948Z,15.69
2017-03-04T07:55:38.847Z,15.64
2017-03-04T07:56:47.744Z,15.69
2017-03-04T07:57:56.629Z,15.64
2017-03-04T07:59:05.520Z,15.74
2017-03-04T08:00:14.418Z,15.78
2017-03-04T08:01:23.332Z,15.71
2017-03-04T08:02:32.254Z,15.81
2017-03-04T08:03:41.176Z,15.76
2017-03-04T08:04:50.070Z,15.7
2017-03-04T08:05:59.003Z,15.67
2017-03-04T08:07:07.898Z,15.66
2017-03-04T08:08:16.815Z,15.73
2017-03-04T08:09:25.711Z,15.69
2017-03-04T08:10:34.627Z,15.71
2017-03-04T08:11:43.535Z,15.73
2017-03-04T08:12:52.416Z,15.69
2017-03-04T08:14:01.307Z,15.67
2017-03-04T08:15:10.189Z,15.69
2017-03-04T08:16:19.116Z,15.73
2017-03-04T08:17:28.405Z,15.66
2017-03-04T08:18:37.321Z,15.69
2017-03-04T08:19:46.216Z,15.78
2017-03-04T08:20:55.114Z,15.78
2017-03-04T08:22:04.012Z,15.7
2017-03-04T08:23:12.912Z,15.82
2017-03-04T08:24:21.801Z,15.73
2017-03-04T08:25:30.678Z,15.78
2017-03-04T08:26:39.554Z,15.84
2017-03-04T08:27:48.432Z,15.79
2017-03-04T08:28:57.324Z,15.79
2017-03-04T08:30:06.247Z,15.78
2017-03-04T08:31:15.136Z,15.79
2017-03-04T08:32:24.017Z,15.76
2017-03-04T08:33:32.913Z,15.79
2017-03-04T08:34:41.807Z,15.76
2017-03-04T08:35:50.695Z,15.85
2017-03-04T08:36:59.607Z,15.86
2017-03-04T08:38:08.512Z,15.85
2017-03-04T08:39:17.403Z,15.85
2017-03-04T08:40:26.322Z,15.85
2017-03-04T08:41:35.213Z,15.79
2017-03-04T08:42:44.105Z,15.92
2017-03-04T08:43:52.988Z,15.94
2017-03-04T08:45:01.874Z,15.84
2017-03-04T08:46:10.762Z,15.85
2017-03-04T08:47:19.673Z,15.86
2017-03-04T08:48:28.957Z,15.86
2017-03-04T08:49:37.840Z,15.88
2017-03-04T08:50:46.742Z,15.85
2017-03-04T08:51:55.656Z,15.89
2017-03-04T08:53:04.945Z,15.84
2017-03-04T08:54:13.826Z,15.86
2017-03-04T08:55:22.716Z,15.89
2017-03-04T08:56:31.632Z,15.91
2017-03-04T08:57:40.534Z,15.99
2017-03-04T08:58:49.436Z,16
2017-03-04T08:59:58.346Z,15.99
2017-03-04T09:01:07.262Z,15.96
2017-03-04T09:02:16.172Z,15.99
2017-03-04T09:03:25.085Z,16.03
2017-03-04T09:04:33.985Z,15.97
2017-03-04T09:05:42.902Z,15.96
2017-03-04T09:06:51.803Z,16.03
2017-03-04T09:08:00.732Z,16.01
2017-03-04T09:09:09.647Z,16.09
2017-03-04T09:10:18.521Z,16.01
2017-03-04T09:11:27.421Z,16.03
2017-03-04T09:12:36.308Z,15.97
2017-03-04T09:13:45.262Z,16.11
2017-03-04T09:14:54.147Z,16.14
2017-03-04T09:16:03.098Z,16.48
2017-03-04T09:17:12.002Z,16.44
2017-03-04T09:18:20.916Z,16.53
2017-03-04T09:19:29.811Z,16.65
2017-03-04T09:20:38.715Z,16.62
2017-03-04T09:21:47.624Z,16.71
2017-03-04T09:22:56.510Z,16.73
2017-03-04T09:24:05.801Z,16.82
2017-03-04T09:25:14.674Z,16.89
2017-03-04T09:26:23.544Z,16.8
2017-03-04T09:27:32.449Z,16.95
2017-03-04T09:28:41.335Z,16.92
2017-03-04T09:29:50.243Z,16.95
2017-03-04T09:30:59.144Z,17.02
2017-03-04T09:32:08.073Z,16.98
2017-03-04T09:33:16.977Z,17.08
2017-03-04T09:34:25.856Z,17.13
2017-03-04T09:35:34.756Z,17.15
2017-03-04T09:36:43.677Z,17.21
2017-03-04T09:37:52.581Z,17.29
2017-03-04T09:39:01.476Z,17.29
2017-03-04T09:40:10.378Z,17.36
2017-03-04T09:41:19.260Z,17.4
2017-03-04T09:42:28.168Z,17.38
2017-03-04T09:43:37.052Z,17.42
2017-03-04T09:44:46.360Z,17.42
2017-03-04T09:45:55.531Z,17.47
2017-03-04T09:47:05.083Z,17.47
2017-03-04T09:48:13.975Z,17.54
2017-03-04T09:49:22.888Z,17.64
2017-03-04T09:50:33.029Z,17.77
2017-03-04T09:51:41.932Z,17.8
2017-03-04T09:52:50.822Z,17.79
2017-03-04T09:54:00.920Z,17.92
2017-03-04T09:55:12.059Z,17.92
2017-03-04T09:56:21.502Z,17.96
2017-03-04T09:57:30.410Z,18.09
2017-03-04T09:58:39.317Z,18.16
2017-03-04T09:59:48.229Z,18.28
2017-03-04T10:00:57.310Z,18.32
2017-03-04T10:02:06.264Z,18.36
2017-03-04T10:03:15.666Z,18.4
2017-03-04T10:04:24.556Z,18.4
2017-03-04T10:05:33.444Z,18.34
2017-03-04T10:06:42.335Z,18.4
2017-03-04T10:07:51.230Z,18.4
2017-03-04T10:09:00.109Z,18.34
2017-03-04T10:10:09.006Z,18.4
2017-03-04T10:11:17.891Z,18.44
2017-03-04T10:12:26.775Z,18.42
2017-03-04T10:13:35.689Z,18.49
2017-03-04T10:14:44.598Z,18.46
2017-03-04T10:15:53.490Z,18.46
2017-03-04T10:17:02.415Z,18.51
2017-03-04T10:18:11.328Z,18.59
2017-03-04T10:19:20.317Z,18.68
2017-03-04T10:20:29.245Z,18.69
2017-03-04T10:21:38.133Z,18.74
2017-03-04T10:22:47.036Z,18.66
2017-03-04T10:23:55.920Z,18.66
2017-03-04T10:25:04.814Z,18.69
2017-03-04T10:26:13.714Z,18.76
2017-03-04T10:27:22.596Z,18.76
2017-03-04T10:28:31.492Z,18.8
2017-03-04T10:29:40.405Z,18.76
2017-03-04T10:30:49.324Z,18.77
2017-03-04T10:31:58.233Z,18.89
2017-03-04T10:33:07.979Z,18.9
2017-03-04T10:34:17.367Z,18.9
2017-03-04T10:35:26.276Z,18.94
2017-03-04T10:36:35.188Z,18.95
2017-03-04T10:37:44.082Z,18.95
2017-03-04T10:38:53.371Z,18.98
2017-03-04T10:40:02.267Z,18.94
2017-03-04T10:41:11.553Z,18.97
2017-03-04T10:42:20.445Z,19.02
2017-03-04T10:43:29.337Z,19.02
2017-03-04T10:44:38.222Z,19.07
2017-03-04T10:45:47.127Z,19.06
2017-03-04T10:46:56.045Z,19.21
2017-03-04T10:48:04.956Z,19.21
2017-03-04T10:49:13.838Z,19.36
2017-03-04T10:50:22.736Z,19.37
2017-03-04T10:51:31.633Z,19.35
2017-03-04T10:52:40.526Z,19.27
2017-03-04T10:53:49.440Z,19.36
2017-03-04T10:54:58.654Z,19.45
2017-03-04T10:56:07.944Z,19.45
2017-03-04T10:57:16.838Z,19.57
2017-03-04T10:58:26.129Z,19.64
2017-03-04T10:59:35.031Z,19.64
2017-03-04T11:00:43.957Z,19.62
2017-03-04T11:01:52.840Z,19.6
2017-03-04T11:03:01.728Z,19.64
2017-03-04T11:04:10.624Z,19.64
2017-03-04T11:05:19.531Z,19.62
2017-03-04T11:06:28.423Z,19.7
2017-03-04T11:07:37.321Z,19.69
2017-03-04T11:08:46.211Z,19.8
2017-03-04T11:09:55.108Z,19.76
2017-03-04T11:11:04.395Z,19.76
2017-03-04T11:12:13.325Z,19.79
2017-03-04T11:13:22.213Z,19.8
2017-03-04T11:14:31.104Z,19.85
2017-03-04T11:15:40.045Z,19.79
2017-03-04T11:16:48.990Z,19.8
2017-03-04T11:17:57.876Z,19.9
2017-03-04T11:19:06.772Z,19.77
2017-03-04T11:20:15.672Z,19.94
2017-03-04T11:21:24.592Z,19.83
2017-03-04T11:22:33.483Z,19.9
2017-03-04T11:23:42.383Z,19.83
2017-03-04T11:24:51.303Z,19.8
2017-03-04T11:26:00.209Z,19.83
2017-03-04T11:27:09.101Z,19.9
2017-03-04T11:28:17.984Z,19.9
2017-03-04T11:29:26.922Z,19.76
2017-03-04T11:30:35.827Z,19.88
2017-03-04T11:31:44.709Z,20
2017-03-04T11:32:53.999Z,19.83
2017-03-04T11:34:02.904Z,19.88
2017-03-04T11:35:11.802Z,19.94
2017-03-04T11:36:20.687Z,19.9
2017-03-04T11:37:29.611Z,19.95
2017-03-04T11:38:38.494Z,19.9
2017-03-04T11:39:47.375Z,19.87
2017-03-04T11:40:56.279Z,19.91
2017-03-04T11:42:05.565Z,19.9
2017-03-04T11:43:14.458Z,19.94
2017-03-04T11:44:23.765Z,19.9
2017-03-04T11:45:32.646Z,19.88
2017-03-04T11:46:41.554Z,19.88
2017-03-04T11:47:50.459Z,19.88
2017-03-04T11:48:59.347Z,19.92
2017-03-04T11:50:08.297Z,19.94
2017-03-04T11:51:17.194Z,19.92
2017-03-04T11:52:26.113Z,19.9
2017-03-04T11:53:34.992Z,19.9
2017-03-04T11:54:43.870Z,19.92
2017-03-04T11:55:52.784Z,19.92
2017-03-04T11:57:01.717Z,19.92
2017-03-04T11:58:11.019Z,19.97
2017-03-04T11:59:19.924Z,19.91
2017-03-04T12:00:28.832Z,20
2017-03-04T12:01:38.114Z,19.94
2017-03-04T12:02:47.001Z,19.91
2017-03-04T12:03:55.901Z,19.91
2017-03-04T12:05:04.786Z,19.92
2017-03-04T12:06:13.671Z,19.95
2017-03-04T12:07:22.571Z,19.9
2017-03-04T12:08:31.501Z,19.91
2017-03-04T12:09:40.423Z,19.94
2017-03-04T12:10:49.336Z,19.94
2017-03-04T12:11:58.248Z,19.95
2017-03-04T12:13:07.131Z,20.02
2017-03-04T12:14:16.421Z,19.92
2017-03-04T12:15:25.305Z,20
2017-03-04T12:16:34.209Z,20
2017-03-04T12:17:43.109Z,20.1
2017-03-04T12:18:52.010Z,20.01
2017-03-04T12:20:00.906Z,20.07
2017-03-04T12:21:09.819Z,20.04
2017-03-04T12:22:18.714Z,20.04
2017-03-04T12:23:27.636Z,20.06
2017-03-04T12:24:36.553Z,20.01
2017-03-04T12:25:45.459Z,20.07
2017-03-04T12:26:54.361Z,20.06
2017-03-04T12:28:03.289Z,20.12
2017-03-04T12:29:12.190Z,20.16
2017-03-04T12:30:21.106Z,20.19
2017-03-04T12:31:30.028Z,20.19
2017-03-04T12:32:39.313Z,20.19
2017-03-04T12:33:48.197Z,20.17
2017-03-04T12:34:57.102Z,20.22
2017-03-04T12:36:05.984Z,20.3
2017-03-04T12:37:14.888Z,20.24
2017-03-04T12:38:23.794Z,20.24
2017-03-04T12:39:32.689Z,20.25
2017-03-04T12:40:41.585Z,20.27
2017-03-04T12:41:50.536Z,20.17
2017-03-04T12:42:59.440Z,20.31
2017-03-04T12:44:08.756Z,20.34
2017-03-04T12:45:17.639Z,20.27
2017-03-04T12:46:26.523Z,20.34
2017-03-04T12:47:35.411Z,20.37
2017-03-04T12:48:44.291Z,20.37
2017-03-04T12:49:53.176Z,20.32
2017-03-04T12:51:02.056Z,20.47
2017-03-04T12:52:10.950Z,20.34
2017-03-04T12:53:19.859Z,20.35
2017-03-04T12:54:28.757Z,20.43
2017-03-04T12:55:37.662Z,20.41
2017-03-04T12:56:46.552Z,20.41
2017-03-04T12:57:55.441Z,20.4
2017-03-04T12:59:04.753Z,20.46
2017-03-04T13:00:13.676Z,20.51
2017-03-04T13:01:22.960Z,20.5
2017-03-04T13:02:31.875Z,20.48
2017-03-04T13:03:40.775Z,20.56
2017-03-04T13:04:49.693Z,20.51
2017-03-04T13:05:58.610Z,20.46
2017-03-04T13:07:07.521Z,20.46
2017-03-04T13:08:16.419Z,20.58
2017-03-04T13:09:25.313Z,20.56
2017-03-04T13:10:34.241Z,20.58
2017-03-04T13:11:43.124Z,20.65
2017-03-04T13:12:52.008Z,20.62
2017-03-04T13:14:01.005Z,20.6
2017-03-04T13:15:09.891Z,20.63
2017-03-04T13:16:18.782Z,20.71
2017-03-04T13:17:27.678Z,20.62
2017-03-04T13:18:36.589Z,20.71
2017-03-04T13:19:45.478Z,20.68
2017-03-04T13:20:54.799Z,20.68
2017-03-04T13:22:03.719Z,20.71
2017-03-04T13:23:12.621Z,20.65
2017-03-04T13:24:21.511Z,20.68
2017-03-04T13:25:30.412Z,20.71
2017-03-04T13:26:39.311Z,20.76
2017-03-04T13:27:48.205Z,20.72
2017-03-04T13:28:57.106Z,20.71
2017-03-04T13:30:06.022Z,20.84
2017-03-04T13:31:14.926Z,20.87
2017-03-04T13:32:23.818Z,20.81
2017-03-04T13:33:32.723Z,20.9
2017-03-04T13:34:41.636Z,20.9
2017-03-04T13:35:50.539Z,20.86
2017-03-04T13:36:59.439Z,20.86
2017-03-04T13:38:08.328Z,20.91
2017-03-04T13:39:17.632Z,20.88
2017-03-04T13:40:26.518Z,20.9
2017-03-04T13:41:35.435Z,20.93
2017-03-04T13:42:44.347Z,20.9
2017-03-04T13:43:53.231Z,20.91
2017-03-04T13:45:02.922Z,20.9
2017-03-04T13:46:12.243Z,20.91
2017-03-04T13:47:21.144Z,20.94
2017-03-04T13:48:30.060Z,20.93
2017-03-04T13:49:38.970Z,20.93
2017-03-04T13:50:47.888Z,20.9
2017-03-04T13:51:56.771Z,20.93
2017-03-04T13:53:05.673Z,20.93
2017-03-04T13:54:14.963Z,20.94
2017-03-04T13:55:24.262Z,21.01
2017-03-04T13:56:33.152Z,20.94
2017-03-04T13:57:42.053Z,21.08
2017-03-04T13:58:50.976Z,20.93
2017-03-04T13:59:59.880Z,21.06
2017-03-04T14:01:08.799Z,21.01
2017-03-04T14:02:17.676Z,21.06
2017-03-04T14:03:26.575Z,21.05
2017-03-04T14:04:35.508Z,20.95
2017-03-04T14:05:44.455Z,21.08
2017-03-04T14:06:53.353Z,21.01
2017-03-04T14:08:02.254Z,21.06
2017-03-04T14:09:11.159Z,20.97
2017-03-04T14:10:20.450Z,20.97
2017-03-04T14:11:29.752Z,21.08
2017-03-04T14:12:38.651Z,21.08
2017-03-04T14:13:47.545Z,21.1
2017-03-04T14:14:56.485Z,21.12
2017-03-04T14:16:05.422Z,21.15
2017-03-04T14:17:14.334Z,21.06
2017-03-04T14:18:23.234Z,21.12
2017-03-04T14:19:32.115Z,21.1
2017-03-04T14:20:41.022Z,21.05
2017-03-04T14:21:50.303Z,21.13
2017-03-04T14:22:59.208Z,21.13
2017-03-04T14:24:08.489Z,21.18
2017-03-04T14:25:17.371Z,21.15
2017-03-04T14:26:26.276Z,21.2
2017-03-04T14:27:35.166Z,21.2
2017-03-04T14:28:44.071Z,21.17
2017-03-04T14:29:52.976Z,21.15
2017-03-04T14:31:01.866Z,21.15
2017-03-04T14:32:11.567Z,21.25
2017-03-04T14:33:20.462Z,21.17
2017-03-04T14:34:29.357Z,21.18
2017-03-04T14:35:38.282Z,21.24
2017-03-04T14:36:47.164Z,21.24
2017-03-04T14:37:56.077Z,21.23
2017-03-04T14:39:04.990Z,21.24
2017-03-04T14:40:13.915Z,21.2
2017-03-04T14:41:22.820Z,21.2
2017-03-04T14:42:31.705Z,21.28
2017-03-04T14:43:40.583Z,21.27
2017-03-04T14:44:49.477Z,21.25
2017-03-04T14:45:58.368Z,21.28
2017-03-04T14:47:07.273Z,21.27
2017-03-04T14:48:16.198Z,21.24
2017-03-04T14:49:25.120Z,21.21
2017-03-04T14:50:34.002Z,21.27
2017-03-04T14:51:42.876Z,21.27
2017-03-04T14:52:51.786Z,21.18